CST,Max TemperatureF,Mean TemperatureF,Min TemperatureF,Max Dew PointF,MeanDew PointF,Min DewpointF,Max Humidity, Mean Humidity, Min Humidity, Max Sea Level PressureIn, Mean Sea Level PressureIn, Min Sea Level PressureIn, Max VisibilityMiles, Mean VisibilityMiles, Min VisibilityMiles, Max Wind SpeedMPH, Mean Wind SpeedMPH, Max Gust SpeedMPH,PrecipitationIn, CloudCover, Events, WindDirDegrees
2013-1-1,21,17,13,16,12,10,92,83,73,30.39,30.29,30.21,10,8,4,15,7,20,T,3,Snow,294
2013-1-2,33,21,9,27,18,4,88,80,72,30.31,30.22,30.16,10,10,6,18,9,22,T,4,Snow,264
2013-1-3,32,25,17,23,18,14,91,72,53,30.49,30.41,30.32,10,10,7,13,8,17,T,5,Snow,272
2013-1-4,29,21,12,20,13,7,88,75,62,30.39,30.30,30.19,10,10,10,16,7,21,0.00,0,,223
2013-1-5,34,29,24,27,22,16,85,74,63,30.29,30.16,30.07,10,10,9,21,12,26,0.00,2,,243
2013-1-6,37,27,17,22,18,12,80,68,56,30.40,30.31,30.17,10,10,10,23,8,29,0.00,0,,237
2013-1-7,42,36,29,28,25,22,78,68,57,30.15,30.04,29.96,10,10,10,28,13,35,0.00,0,,200
2013-1-8,39,34,29,29,26,24,78,71,64,30.21,30.00,29.89,10,10,9,20,11,25,0.00,0,,225
2013-1-9,46,35,24,32,28,21,92,77,62,30.46,30.36,30.24,10,9,5,14,3,15,0.00,0,,265
2013-1-10,41,35,29,40,36,28,100,85,70,30.30,29.90,29.69,10,2,0,14,6,20,0.37,8,Fog-Rain,129
2013-1-11,54,41,27,43,37,19,100,67,34,29.87,29.58,29.40,10,6,0,29,18,38,0.00,6,Fog,199
2013-1-12,27,20,13,18,10,5,75,63,50,30.22,30.10,29.84,10,10,10,24,12,31,0.00,1,,331
2013-1-13,24,16,8,6,4,2,73,58,42,30.41,30.32,30.22,10,10,10,16,9,20,0.00,0,,307
2013-1-14,29,19,8,13,8,4,80,61,42,30.53,30.44,30.37,10,10,10,8,4,12,0.00,0,,255
2013-1-15,35,25,15,18,14,8,74,61,47,30.37,30.28,30.09,10,10,10,14,7,17,0.00,1,,223
2013-1-16,54,38,22,30,24,15,75,55,35,30.29,30.11,30.01,10,10,10,18,11,23,0.00,1,,280
2013-1-17,53,40,26,30,26,23,85,63,41,30.50,30.41,30.32,10,10,10,16,7,18,0.00,0,,251
2013-1-18,57,45,33,29,27,25,75,54,33,30.30,30.10,29.95,10,10,10,31,15,38,0.00,0,,215
2013-1-19,60,46,32,27,25,23,72,48,23,30.31,30.10,29.94,10,10,10,23,10,30,0.00,0,,301
2013-1-20,35,27,18,26,13,10,78,63,47,30.49,30.37,30.26,10,10,10,16,8,28,0.00,1,,42
2013-1-21,24,19,13,16,11,7,84,71,57,30.47,30.41,30.29,10,10,7,13,6,16,0.00,4,,67
2013-1-22,32,23,13,13,9,5,80,62,43,30.37,30.31,30.25,10,10,10,16,6,20,0.00,0,,118
2013-1-23,46,30,14,22,16,10,81,61,40,30.48,30.29,30.19,10,9,5,20,8,24,0.00,0,,22
2013-1-24,25,17,8,10,3,0,74,55,36,30.50,30.35,30.19,10,10,10,13,8,32,0.00,4,,104
2013-1-25,51,34,16,24,18,6,73,54,35,30.26,30.22,30.13,10,10,9,15,6,16,0.00,0,,234
2013-1-26,58,45,32,39,24,18,69,46,23,30.21,30.10,29.94,10,9,7,26,12,31,0.01,3,Rain,173
2013-1-27,65,49,32,54,41,30,100,76,52,29.94,29.77,29.62,10,3,0,23,10,28,0.04,5,Fog-Rain,179
2013-1-28,69,48,27,54,37,27,100,69,37,29.84,29.72,29.54,10,3,0,26,8,37,0.00,2,Fog,167
2013-1-29,37,34,30,36,31,28,100,85,70,29.71,29.65,29.58,9,3,0,28,14,37,0.17,8,Fog-Snow,347
2013-1-30,31,24,16,28,16,10,92,76,60,29.99,29.88,29.69,10,6,0,30,14,40,0.10,7,Fog-Snow,321
2013-1-31,22,14,5,14,6,-1,88,71,54,30.50,30.27,29.95,10,9,7,26,9,33,0.00,5,,334